sensor_id;sensor_type;location;lat;lon;timestamp;pressure;altitude;pressure_sealevel;temperature;humidity
71966;BME280;59836;52.132;5.442;2023-08-24T00:01:13;101894.72;;;17.16;91.68
71966;BME280;59836;52.132;5.442;2023-08-24T00:03:40;101891.44;;;17.14;91.61
71966;BME280;59836;52.132;5.442;2023-08-24T00:06:15;101888.16;;;17.11;91.61
71966;BME280;59836;52.132;5.442;2023-08-24T00:08:45;101896.38;;;17.11;91.81
71966;BME280;59836;52.132;5.442;2023-08-24T00:11:29;101892.00;;;17.10;91.66
71966;BME280;59836;52.132;5.442;2023-08-24T00:13:55;101884.91;;;17.09;91.91
71966;BME280;59836;52.132;5.442;2023-08-24T00:16:35;101877.78;;;17.08;91.53
71966;BME280;59836;52.132;5.442;2023-08-24T00:19:06;101869.81;;;17.07;91.52
71966;BME280;59836;52.132;5.442;2023-08-24T00:21:44;101874.50;;;17.06;91.97
71966;BME280;59836;52.132;5.442;2023-08-24T00:24:10;101880.00;;;17.06;92.15
71966;BME280;59836;52.132;5.442;2023-08-24T00:26:37;101881.03;;;17.10;92.06
71966;BME280;59836;52.132;5.442;2023-08-24T00:29:04;101875.03;;;17.08;91.89
71966;BME280;59836;52.132;5.442;2023-08-24T00:31:35;101866.81;;;17.08;91.97
71966;BME280;59836;52.132;5.442;2023-08-24T00:34:02;101877.25;;;17.06;92.61
71966;BME280;59836;52.132;5.442;2023-08-24T00:39:24;101865.19;;;17.07;92.63
71966;BME280;59836;52.132;5.442;2023-08-24T00:42:15;101859.16;;;17.05;92.69
71966;BME280;59836;52.132;5.442;2023-08-24T00:44:50;101849.84;;;17.06;93.15
71966;BME280;59836;52.132;5.442;2023-08-24T00:47:34;101850.38;;;17.08;92.64
71966;BME280;59836;52.132;5.442;2023-08-24T00:50:07;101838.81;;;17.11;92.96
71966;BME280;59836;52.132;5.442;2023-08-24T00:52:36;101838.25;;;17.15;92.75
71966;BME280;59836;52.132;5.442;2023-08-24T00:55:19;101834.97;;;17.13;92.92
71966;BME280;59836;52.132;5.442;2023-08-24T00:57:51;101834.66;;;17.14;92.83
71966;BME280;59836;52.132;5.442;2023-08-24T01:00:23;101838.81;;;17.11;93.21
71966;BME280;59836;52.132;5.442;2023-08-24T01:02:50;101838.81;;;17.11;93.21
71966;BME280;59836;52.132;5.442;2023-08-24T01:05:28;101846.47;;;17.15;93.18
71966;BME280;59836;52.132;5.442;2023-08-24T01:07:54;101850.84;;;17.16;92.80
71966;BME280;59836;52.132;5.442;2023-08-24T01:10:22;101850.84;;;17.16;92.58
71966;BME280;59836;52.132;5.442;2023-08-24T01:13:14;101850.91;;;17.10;92.83
71966;BME280;59836;52.132;5.442;2023-08-24T01:15:55;101851.47;;;17.07;92.43
71966;BME280;59836;52.132;5.442;2023-08-24T01:18:25;101852.84;;;17.05;92.96
71966;BME280;59836;52.132;5.442;2023-08-24T01:21:05;101858.09;;;17.01;93.02
71966;BME280;59836;52.132;5.442;2023-08-24T01:26:37;101846.63;;;16.99;92.99
71966;BME280;59836;52.132;5.442;2023-08-24T01:29:08;101838.66;;;16.97;93.52
71966;BME280;59836;52.132;5.442;2023-08-24T01:31:43;101836.50;;;16.94;93.12
71966;BME280;59836;52.132;5.442;2023-08-24T01:34:10;101829.09;;;16.95;93.29
71966;BME280;59836;52.132;5.442;2023-08-24T01:36:46;101836.78;;;16.93;93.27
71966;BME280;59836;52.132;5.442;2023-08-24T01:40:06;101847.75;;;16.93;93.54
71966;BME280;59836;52.132;5.442;2023-08-24T01:42:26;101840.63;;;16.92;93.80
71966;BME280;59836;52.132;5.442;2023-08-24T01:45:14;101843.66;;;16.90;93.74
71966;BME280;59836;52.132;5.442;2023-08-24T01:47:42;101847.75;;;16.93;94.03
71966;BME280;59836;52.132;5.442;2023-08-24T01:50:26;101867.44;;;16.95;94.25
71966;BME280;59836;52.132;5.442;2023-08-24T01:53:16;101868.53;;;16.99;94.33
71966;BME280;59836;52.132;5.442;2023-08-24T01:55:55;101860.31;;;16.99;94.24
71966;BME280;59836;52.132;5.442;2023-08-24T01:58:35;101847.72;;;16.98;94.08
71966;BME280;59836;52.132;5.442;2023-08-24T02:01:15;101844.97;;;16.98;93.91
71966;BME280;59836;52.132;5.442;2023-08-24T02:03:43;101838.41;;;16.99;94.63
71966;BME280;59836;52.132;5.442;2023-08-24T02:06:15;101832.63;;;17.01;94.47
71966;BME280;59836;52.132;5.442;2023-08-24T02:08:41;101821.38;;;17.02;94.69
71966;BME280;59836;52.132;5.442;2023-08-24T02:11:09;101829.59;;;17.02;94.50
71966;BME280;59836;52.132;5.442;2023-08-24T02:13:36;101831.47;;;17.07;94.64
71966;BME280;59836;52.132;5.442;2023-08-24T02:16:08;101826.81;;;17.07;94.55
71966;BME280;59836;52.132;5.442;2023-08-24T02:18:42;101826.81;;;17.07;94.22
71966;BME280;59836;52.132;5.442;2023-08-24T02:21:09;101821.84;;;17.09;94.60
71966;BME280;59836;52.132;5.442;2023-08-24T02:23:48;101818.28;;;17.09;94.72
71966;BME280;59836;52.132;5.442;2023-08-24T02:26:14;101810.38;;;17.07;94.43
71966;BME280;59836;52.132;5.442;2023-08-24T02:28:41;101819.13;;;17.09;94.39
71966;BME280;59836;52.132;5.442;2023-08-24T02:31:07;101819.13;;;17.09;95.08
71966;BME280;59836;52.132;5.442;2023-08-24T02:33:36;101814.44;;;17.10;95.02
71966;BME280;59836;52.132;5.442;2023-08-24T02:36:16;101804.88;;;17.07;94.68
71966;BME280;59836;52.132;5.442;2023-08-24T02:42:05;101765.97;;;17.05;94.62
71966;BME280;59836;52.132;5.442;2023-08-24T02:44:36;101758.03;;;17.04;94.24
71966;BME280;59836;52.132;5.442;2023-08-24T02:47:12;101746.81;;;17.05;94.75
71966;BME280;59836;52.132;5.442;2023-08-24T02:49:44;101747.59;;;17.06;94.49
71966;BME280;59836;52.132;5.442;2023-08-24T02:52:11;101738.06;;;17.03;94.43
71966;BME280;59836;52.132;5.442;2023-08-24T02:54:56;101734.78;;;17.01;94.52
71966;BME280;59836;52.132;5.442;2023-08-24T02:57:23;101723.81;;;17.01;94.83
71966;BME280;59836;52.132;5.442;2023-08-24T03:00:21;101718.94;;;16.98;94.83
71966;BME280;59836;52.132;5.442;2023-08-24T03:02:58;101726.03;;;16.99;95.00
71966;BME280;59836;52.132;5.442;2023-08-24T03:05:33;101735.31;;;17.03;95.65
71966;BME280;59836;52.132;5.442;2023-08-24T03:08:34;101741.31;;;17.05;95.61
71966;BME280;59836;52.132;5.442;2023-08-24T03:11:01;101741.00;;;17.07;95.65
71966;BME280;59836;52.132;5.442;2023-08-24T03:13:30;101748.44;;;17.06;95.90
71966;BME280;59836;52.132;5.442;2023-08-24T03:19:18;101747.00;;;17.09;95.91
71966;BME280;59836;52.132;5.442;2023-08-24T03:21:44;101736.88;;;17.09;96.13
71966;BME280;59836;52.132;5.442;2023-08-24T03:24:11;101736.06;;;17.09;95.81
71966;BME280;59836;52.132;5.442;2023-08-24T03:26:38;101735.25;;;17.08;95.80
71966;BME280;59836;52.132;5.442;2023-08-24T03:29:05;101719.91;;;17.07;96.21
71966;BME280;59836;52.132;5.442;2023-08-24T03:31:47;101713.91;;;17.05;95.92
71966;BME280;59836;52.132;5.442;2023-08-24T03:34:14;101716.66;;;17.05;95.79
71966;BME280;59836;52.132;5.442;2023-08-24T03:36:40;101706.28;;;17.02;95.68
71966;BME280;59836;52.132;5.442;2023-08-24T03:39:17;101699.44;;;17.00;95.79
71966;BME280;59836;52.132;5.442;2023-08-24T03:41:43;101710.69;;;16.98;95.98
71966;BME280;59836;52.132;5.442;2023-08-24T03:44:10;101710.16;;;16.96;95.83
71966;BME280;59836;52.132;5.442;2023-08-24T03:46:37;101710.72;;;16.93;96.16
71966;BME280;59836;52.132;5.442;2023-08-24T03:49:05;101700.88;;;16.92;96.31
71966;BME280;59836;52.132;5.442;2023-08-24T03:51:55;101700.59;;;16.93;96.28
71966;BME280;59836;52.132;5.442;2023-08-24T03:54:34;101701.72;;;16.92;96.16
71966;BME280;59836;52.132;5.442;2023-08-24T03:57:06;101704.72;;;16.91;96.19
71966;BME280;59836;52.132;5.442;2023-08-24T04:03:21;101698.78;;;16.83;96.25
71966;BME280;59836;52.132;5.442;2023-08-24T04:05:48;101690.88;;;16.82;96.16
71966;BME280;59836;52.132;5.442;2023-08-24T04:08:18;101695.28;;;16.78;96.49
71966;BME280;59836;52.132;5.442;2023-08-24T04:10:51;101694.75;;;16.76;96.33
71966;BME280;59836;52.132;5.442;2023-08-24T04:13:19;101696.16;;;16.73;96.55
71966;BME280;59836;52.132;5.442;2023-08-24T04:15:45;101700.56;;;16.69;96.36
71966;BME280;59836;52.132;5.442;2023-08-24T04:18:12;101695.41;;;16.67;96.51
71966;BME280;59836;52.132;5.442;2023-08-24T04:20:43;101698.94;;;16.68;96.64
71966;BME280;59836;52.132;5.442;2023-08-24T04:23:13;101694.88;;;16.65;96.49
71966;BME280;59836;52.132;5.442;2023-08-24T04:25:46;101704.72;;;16.66;96.86
71966;BME280;59836;52.132;5.442;2023-08-24T04:31:22;101702.78;;;16.67;96.74
71966;BME280;59836;52.132;5.442;2023-08-24T04:33:49;101707.75;;;16.65;96.45
71966;BME280;59836;52.132;5.442;2023-08-24T04:36:21;101714.91;;;16.61;96.60
71966;BME280;59836;52.132;5.442;2023-08-24T04:38:49;101710.53;;;16.60;96.74
71966;BME280;59836;52.132;5.442;2023-08-24T04:44:22;101716.56;;;16.57;96.61
71966;BME280;59836;52.132;5.442;2023-08-24T04:46:49;101716.88;;;16.55;96.53
71966;BME280;59836;52.132;5.442;2023-08-24T04:49:19;101714.41;;;16.53;96.77
71966;BME280;59836;52.132;5.442;2023-08-24T04:51:46;101706.19;;;16.53;96.82
71966;BME280;59836;52.132;5.442;2023-08-24T04:54:26;101712.78;;;16.52;96.88
71966;BME280;59836;52.132;5.442;2023-08-24T04:56:53;101697.75;;;16.50;96.78
71966;BME280;59836;52.132;5.442;2023-08-24T04:59:20;101701.59;;;16.49;97.10
71966;BME280;59836;52.132;5.442;2023-08-24T05:01:47;101702.41;;;16.49;97.21
71966;BME280;59836;52.132;5.442;2023-08-24T05:04:15;101707.88;;;16.49;97.09
71966;BME280;59836;52.132;5.442;2023-08-24T05:07:05;101706.50;;;16.52;97.36
71966;BME280;59836;52.132;5.442;2023-08-24T05:09:42;101701.84;;;16.52;97.50
71966;BME280;59836;52.132;5.442;2023-08-24T05:12:16;101702.34;;;16.55;97.48
71966;BME280;59836;52.132;5.442;2023-08-24T05:18:20;101707.84;;;16.55;97.43
71966;BME280;59836;52.132;5.442;2023-08-24T05:24:07;101692.47;;;16.59;97.96
71966;BME280;59836;52.132;5.442;2023-08-24T05:26:43;101686.19;;;16.58;97.99
71966;BME280;59836;52.132;5.442;2023-08-24T05:29:09;101680.41;;;16.60;98.22
71966;BME280;59836;52.132;5.442;2023-08-24T05:31:43;101681.44;;;16.64;98.16
71966;BME280;59836;52.132;5.442;2023-08-24T05:34:17;101673.22;;;16.64;97.80
71966;BME280;59836;52.132;5.442;2023-08-24T05:37:15;101671.56;;;16.68;98.16
71966;BME280;59836;52.132;5.442;2023-08-24T05:39:42;101660.84;;;16.72;98.30
71966;BME280;59836;52.132;5.442;2023-08-24T05:42:09;101661.06;;;16.75;98.40
71966;BME280;59836;52.132;5.442;2023-08-24T05:44:36;101660.47;;;16.78;98.31
71966;BME280;59836;52.132;5.442;2023-08-24T05:47:32;101661.53;;;16.82;98.09
71966;BME280;59836;52.132;5.442;2023-08-24T05:49:58;101659.31;;;16.85;97.83
71966;BME280;59836;52.132;5.442;2023-08-24T05:52:43;101658.44;;;16.89;98.18
71966;BME280;59836;52.132;5.442;2023-08-24T05:55:36;101646.06;;;16.92;98.25
71966;BME280;59836;52.132;5.442;2023-08-24T05:58:04;101644.69;;;16.94;98.65
71966;BME280;59836;52.132;5.442;2023-08-24T06:00:42;101648.22;;;16.95;98.91
71966;BME280;59836;52.132;5.442;2023-08-24T06:03:08;101647.44;;;16.94;99.15
71966;BME280;59836;52.132;5.442;2023-08-24T06:05:51;101647.69;;;16.98;98.89
71966;BME280;59836;52.132;5.442;2023-08-24T06:08:22;101633.38;;;17.01;98.77
71966;BME280;59836;52.132;5.442;2023-08-24T06:10:49;101633.91;;;17.03;98.95
71966;BME280;59836;52.132;5.442;2023-08-24T06:13:20;101631.09;;;17.08;99.11
71966;BME280;59836;52.132;5.442;2023-08-24T06:15:47;101631.31;;;17.12;99.21
71966;BME280;59836;52.132;5.442;2023-08-24T06:18:32;101627.69;;;17.17;98.88
71966;BME280;59836;52.132;5.442;2023-08-24T06:20:59;101619.41;;;17.22;99.74
71966;BME280;59836;52.132;5.442;2023-08-24T06:23:43;101618.00;;;17.24;99.49
71966;BME280;59836;52.132;5.442;2023-08-24T06:26:11;101617.13;;;17.29;99.90
71966;BME280;59836;52.132;5.442;2023-08-24T06:28:40;101617.03;;;17.34;98.94
71966;BME280;59836;52.132;5.442;2023-08-24T06:31:07;101603.25;;;17.39;98.87
71966;BME280;59836;52.132;5.442;2023-08-24T06:33:37;101596.59;;;17.46;99.10
71966;BME280;59836;52.132;5.442;2023-08-24T06:36:20;101596.00;;;17.49;99.17
71966;BME280;59836;52.132;5.442;2023-08-24T06:38:47;101592.03;;;17.55;98.68
71966;BME280;59836;52.132;5.442;2023-08-24T06:41:13;101600.50;;;17.59;98.95
71966;BME280;59836;52.132;5.442;2023-08-24T06:43:47;101589.72;;;17.62;98.85
71966;BME280;59836;52.132;5.442;2023-08-24T06:46:14;101589.13;;;17.65;99.24
71966;BME280;59836;52.132;5.442;2023-08-24T06:48:40;101583.03;;;17.68;98.92
71966;BME280;59836;52.132;5.442;2023-08-24T06:51:10;101580.00;;;17.70;98.57
71966;BME280;59836;52.132;5.442;2023-08-24T06:53:36;101574.72;;;17.74;97.98
71966;BME280;59836;52.132;5.442;2023-08-24T06:56:14;101568.03;;;17.80;97.98
71966;BME280;59836;52.132;5.442;2023-08-24T06:58:48;101560.31;;;17.82;98.26
71966;BME280;59836;52.132;5.442;2023-08-24T07:01:14;101558.31;;;17.88;98.21
71966;BME280;59836;52.132;5.442;2023-08-24T07:03:42;101567.25;;;17.93;98.99
71966;BME280;59836;52.132;5.442;2023-08-24T07:06:15;101573.75;;;17.97;99.08
71966;BME280;59836;52.132;5.442;2023-08-24T07:08:42;101577.25;;;18.03;98.67
71966;BME280;59836;52.132;5.442;2023-08-24T07:11:08;101563.75;;;18.07;98.45
71966;BME280;59836;52.132;5.442;2023-08-24T07:13:43;101572.19;;;18.10;98.20
71966;BME280;59836;52.132;5.442;2023-08-24T07:16:10;101567.94;;;18.18;98.06
71966;BME280;59836;52.132;5.442;2023-08-24T07:18:46;101562.34;;;18.23;98.49
71966;BME280;59836;52.132;5.442;2023-08-24T07:21:13;101556.75;;;18.28;98.05
71966;BME280;59836;52.132;5.442;2023-08-24T07:23:43;101546.78;;;18.33;98.42
71966;BME280;59836;52.132;5.442;2023-08-24T07:26:10;101557.34;;;18.39;98.29
71966;BME280;59836;52.132;5.442;2023-08-24T07:28:44;101555.13;;;18.41;97.73
71966;BME280;59836;52.132;5.442;2023-08-24T07:31:27;101566.31;;;18.45;97.36
71966;BME280;59836;52.132;5.442;2023-08-24T07:34:01;101560.72;;;18.50;98.09
71966;BME280;59836;52.132;5.442;2023-08-24T07:36:50;101561.41;;;18.56;97.48
71966;BME280;59836;52.132;5.442;2023-08-24T07:40:01;101559.38;;;18.62;97.13
71966;BME280;59836;52.132;5.442;2023-08-24T07:42:30;101558.47;;;18.66;98.05
71966;BME280;59836;52.132;5.442;2023-08-24T07:45:01;101563.00;;;18.71;97.35
71966;BME280;59836;52.132;5.442;2023-08-24T07:47:27;101549.16;;;18.76;97.16
71966;BME280;59836;52.132;5.442;2023-08-24T07:49:54;101562.00;;;18.81;96.95
71966;BME280;59836;52.132;5.442;2023-08-24T07:52:20;101560.78;;;18.87;96.82
71966;BME280;59836;52.132;5.442;2023-08-24T07:54:48;101555.44;;;18.91;96.35
71966;BME280;59836;52.132;5.442;2023-08-24T07:57:15;101548.22;;;18.95;96.77
71966;BME280;59836;52.132;5.442;2023-08-24T07:59:42;101559.63;;;19.02;97.16
71966;BME280;59836;52.132;5.442;2023-08-24T08:02:09;101560.63;;;19.06;96.57
71966;BME280;59836;52.132;5.442;2023-08-24T08:04:39;101565.19;;;19.11;96.69
71966;BME280;59836;52.132;5.442;2023-08-24T08:07:06;101563.16;;;19.16;96.51
71966;BME280;59836;52.132;5.442;2023-08-24T08:09:33;101563.03;;;19.22;96.96
71966;BME280;59836;52.132;5.442;2023-08-24T08:12:03;101553.53;;;19.28;96.92
71966;BME280;59836;52.132;5.442;2023-08-24T08:14:32;101560.53;;;19.34;96.21
71966;BME280;59836;52.132;5.442;2023-08-24T08:17:02;101546.66;;;19.39;95.98
71966;BME280;59836;52.132;5.442;2023-08-24T08:19:28;101547.22;;;19.50;95.61
71966;BME280;59836;52.132;5.442;2023-08-24T08:21:55;101542.41;;;19.56;95.72
71966;BME280;59836;52.132;5.442;2023-08-24T08:24:21;101536.13;;;19.64;95.77
71966;BME280;59836;52.132;5.442;2023-08-24T08:26:51;101532.75;;;19.67;95.33
71966;BME280;59836;52.132;5.442;2023-08-24T08:29:19;101529.06;;;19.72;94.69
71966;BME280;59836;52.132;5.442;2023-08-24T08:31:45;101532.47;;;19.77;94.57
71966;BME280;59836;52.132;5.442;2023-08-24T08:34:12;101538.34;;;19.85;94.19
71966;BME280;59836;52.132;5.442;2023-08-24T08:36:42;101529.47;;;19.88;93.91
71966;BME280;59836;52.132;5.442;2023-08-24T08:39:19;101529.34;;;19.93;93.63
71966;BME280;59836;52.132;5.442;2023-08-24T08:41:50;101513.34;;;19.95;93.63
71966;BME280;59836;52.132;5.442;2023-08-24T08:44:25;101514.03;;;20.01;93.87
71966;BME280;59836;52.132;5.442;2023-08-24T08:47:02;101503.16;;;20.04;94.00
71966;BME280;59836;52.132;5.442;2023-08-24T08:49:33;101494.75;;;20.10;94.55
71966;BME280;59836;52.132;5.442;2023-08-24T08:52:02;101502.25;;;20.18;93.72
71966;BME280;59836;52.132;5.442;2023-08-24T08:54:32;101495.28;;;20.20;93.50
71966;BME280;59836;52.132;5.442;2023-08-24T08:57:06;101486.06;;;20.25;93.10
71966;BME280;59836;52.132;5.442;2023-08-24T09:00:05;101483.97;;;20.31;92.37
71966;BME280;59836;52.132;5.442;2023-08-24T09:02:43;101479.13;;;20.37;90.78
71966;BME280;59836;52.132;5.442;2023-08-24T09:05:12;101458.56;;;20.43;92.44
71966;BME280;59836;52.132;5.442;2023-08-24T09:07:42;101459.53;;;20.47;92.78
71966;BME280;59836;52.132;5.442;2023-08-24T09:10:09;101466.03;;;20.51;92.39
71966;BME280;59836;52.132;5.442;2023-08-24T09:12:47;101456.47;;;20.57;92.02
71966;BME280;59836;52.132;5.442;2023-08-24T09:15:13;101467.34;;;20.62;92.11
71966;BME280;59836;52.132;5.442;2023-08-24T09:17:43;101463.59;;;20.67;89.65
71966;BME280;59836;52.132;5.442;2023-08-24T09:20:10;101461.97;;;20.75;89.04
71966;BME280;59836;52.132;5.442;2023-08-24T09:22:57;101458.44;;;20.83;89.37
71966;BME280;59836;52.132;5.442;2023-08-24T09:25:24;101441.22;;;20.86;88.92
71966;BME280;59836;52.132;5.442;2023-08-24T09:28:03;101441.56;;;20.93;89.48
71966;BME280;59836;52.132;5.442;2023-08-24T09:30:36;101430.34;;;20.99;88.10
71966;BME280;59836;52.132;5.442;2023-08-24T09:33:10;101434.56;;;21.05;88.46
71966;BME280;59836;52.132;5.442;2023-08-24T09:35:37;101430.19;;;21.13;87.61
71966;BME280;59836;52.132;5.442;2023-08-24T09:38:21;101425.28;;;21.18;88.44
71966;BME280;59836;52.132;5.442;2023-08-24T09:40:55;101424.28;;;21.23;87.76
71966;BME280;59836;52.132;5.442;2023-08-24T09:43:22;101410.66;;;21.27;87.97
71966;BME280;59836;52.132;5.442;2023-08-24T09:45:54;101408.88;;;21.31;87.31
71966;BME280;59836;52.132;5.442;2023-08-24T09:48:22;101415.84;;;21.37;87.18
71966;BME280;59836;52.132;5.442;2023-08-24T09:50:52;101414.03;;;21.41;87.97
71966;BME280;59836;52.132;5.442;2023-08-24T09:53:21;101413.50;;;21.48;88.42
71966;BME280;59836;52.132;5.442;2023-08-24T09:56:14;101416.09;;;21.53;88.65
71966;BME280;59836;52.132;5.442;2023-08-24T09:58:43;101413.97;;;21.59;89.52
71966;BME280;59836;52.132;5.442;2023-08-24T10:01:12;101414.97;;;21.63;88.71
71966;BME280;59836;52.132;5.442;2023-08-24T10:03:45;101416.59;;;21.64;89.20
71966;BME280;59836;52.132;5.442;2023-08-24T10:06:13;101415.75;;;21.63;88.61
71966;BME280;59836;52.132;5.442;2023-08-24T10:08:45;101419.00;;;21.65;87.38
71966;BME280;59836;52.132;5.442;2023-08-24T10:11:26;101422.59;;;21.66;88.26
71966;BME280;59836;52.132;5.442;2023-08-24T10:14:12;101424.88;;;21.64;87.64
71966;BME280;59836;52.132;5.442;2023-08-24T10:16:42;101420.47;;;21.63;88.93
71966;BME280;59836;52.132;5.442;2023-08-24T10:19:36;101417.22;;;21.61;88.36
71966;BME280;59836;52.132;5.442;2023-08-24T10:22:03;101410.06;;;21.60;88.67
71966;BME280;59836;52.132;5.442;2023-08-24T10:24:57;101399.69;;;21.57;89.65
71966;BME280;59836;52.132;5.442;2023-08-24T10:27:26;101407.16;;;21.56;90.96
71966;BME280;59836;52.132;5.442;2023-08-24T10:29:53;101405.06;;;21.53;90.96
71966;BME280;59836;52.132;5.442;2023-08-24T10:32:21;101399.88;;;21.51;91.49
71966;BME280;59836;52.132;5.442;2023-08-24T10:34:51;101398.91;;;21.47;92.29
71966;BME280;59836;52.132;5.442;2023-08-24T10:37:24;101403.97;;;21.45;91.98
71966;BME280;59836;52.132;5.442;2023-08-24T10:39:51;101399.09;;;21.42;91.78
71966;BME280;59836;52.132;5.442;2023-08-24T10:42:18;101406.06;;;21.39;92.46
71966;BME280;59836;52.132;5.442;2023-08-24T10:44:48;101402.84;;;21.37;92.64
71966;BME280;59836;52.132;5.442;2023-08-24T10:47:20;101397.97;;;21.34;93.07
71966;BME280;59836;52.132;5.442;2023-08-24T10:50:05;101406.59;;;21.33;93.36
71966;BME280;59836;52.132;5.442;2023-08-24T10:52:34;101412.91;;;21.33;93.83
71966;BME280;59836;52.132;5.442;2023-08-24T10:55:03;101423.16;;;21.33;93.36
71966;BME280;59836;52.132;5.442;2023-08-24T10:57:38;101410.50;;;21.32;95.17
71966;BME280;59836;52.132;5.442;2023-08-24T11:00:09;101403.34;;;21.31;94.90
71966;BME280;59836;52.132;5.442;2023-08-24T11:02:49;101404.97;;;21.32;94.83
71966;BME280;59836;52.132;5.442;2023-08-24T11:05:24;101404.16;;;21.31;95.03
71966;BME280;59836;52.132;5.442;2023-08-24T11:07:59;101399.13;;;21.33;95.52
71966;BME280;59836;52.132;5.442;2023-08-24T11:10:45;101392.44;;;21.34;95.04
71966;BME280;59836;52.132;5.442;2023-08-24T11:13:17;101393.28;;;21.35;95.33
71966;BME280;59836;52.132;5.442;2023-08-24T11:15:47;101396.53;;;21.37;96.91
71966;BME280;59836;52.132;5.442;2023-08-24T11:18:26;101396.53;;;21.37;97.24
71966;BME280;59836;52.132;5.442;2023-08-24T11:21:00;101394.25;;;21.39;96.81
71966;BME280;59836;52.132;5.442;2023-08-24T11:23:28;101377.69;;;21.39;98.15
71966;BME280;59836;52.132;5.442;2023-08-24T11:25:57;101381.59;;;21.38;97.04
71966;BME280;59836;52.132;5.442;2023-08-24T11:28:27;101374.09;;;21.38;96.63
71966;BME280;59836;52.132;5.442;2023-08-24T11:30:55;101357.22;;;21.40;96.38
71966;BME280;59836;52.132;5.442;2023-08-24T11:35:55;101345.84;;;21.42;96.66
71966;BME280;59836;52.132;5.442;2023-08-24T11:38:22;101349.91;;;21.44;97.11
71966;BME280;59836;52.132;5.442;2023-08-24T11:40:49;101330.59;;;21.44;96.59
71966;BME280;59836;52.132;5.442;2023-08-24T11:43:24;101333.81;;;21.46;96.84
71966;BME280;59836;52.132;5.442;2023-08-24T11:45:54;101326.03;;;21.48;98.46
71966;BME280;59836;52.132;5.442;2023-08-24T11:48:27;101331.69;;;21.52;97.91
71966;BME280;59836;52.132;5.442;2023-08-24T11:50:57;101330.22;;;21.55;98.33
71966;BME280;59836;52.132;5.442;2023-08-24T11:53:24;101319.19;;;21.55;96.17
71966;BME280;59836;52.132;5.442;2023-08-24T11:59:18;101309.25;;;21.62;97.96
71966;BME280;59836;52.132;5.442;2023-08-24T12:01:45;101316.53;;;21.67;98.14
71966;BME280;59836;52.132;5.442;2023-08-24T12:04:25;101310.66;;;21.68;95.60
71966;BME280;59836;52.132;5.442;2023-08-24T12:06:51;101306.88;;;21.73;95.23
71966;BME280;59836;52.132;5.442;2023-08-24T12:09:20;101308.19;;;21.76;95.83
71966;BME280;59836;52.132;5.442;2023-08-24T12:12:02;101307.16;;;21.80;95.07
71966;BME280;59836;52.132;5.442;2023-08-24T12:14:39;101320.31;;;21.83;94.66
71966;BME280;59836;52.132;5.442;2023-08-24T12:17:12;101308.41;;;21.92;95.67
71966;BME280;59836;52.132;5.442;2023-08-24T12:19:59;101304.97;;;21.95;94.90
71966;BME280;59836;52.132;5.442;2023-08-24T12:22:26;101305.91;;;21.99;93.58
71966;BME280;59836;52.132;5.442;2023-08-24T12:24:54;101300.19;;;22.04;93.16
71966;BME280;59836;52.132;5.442;2023-08-24T12:27:25;101283.41;;;22.09;92.42
71966;BME280;59836;52.132;5.442;2023-08-24T12:29:52;101283.19;;;22.15;93.42
71966;BME280;59836;52.132;5.442;2023-08-24T12:32:20;101276.66;;;22.19;93.00
71966;BME280;59836;52.132;5.442;2023-08-24T12:34:49;101278.28;;;22.20;92.77
71966;BME280;59836;52.132;5.442;2023-08-24T12:37:18;101270.13;;;22.24;92.72
71966;BME280;59836;52.132;5.442;2023-08-24T12:39:44;101270.59;;;22.26;92.48
71966;BME280;59836;52.132;5.442;2023-08-24T12:42:11;101255.28;;;22.29;91.38
71966;BME280;59836;52.132;5.442;2023-08-24T12:44:37;101246.97;;;22.29;91.67
71966;BME280;59836;52.132;5.442;2023-08-24T12:47:04;101238.38;;;22.30;90.76
71966;BME280;59836;52.132;5.442;2023-08-24T12:49:31;101225.81;;;22.33;90.38
71966;BME280;59836;52.132;5.442;2023-08-24T12:51:57;101212.81;;;22.33;90.64
71966;BME280;59836;52.132;5.442;2023-08-24T12:54:24;101220.28;;;22.33;90.28
71966;BME280;59836;52.132;5.442;2023-08-24T12:56:51;101222.72;;;22.34;91.65
71966;BME280;59836;52.132;5.442;2023-08-24T12:59:18;101204.16;;;22.35;91.64
71966;BME280;59836;52.132;5.442;2023-08-24T13:01:44;101188.88;;;22.37;91.07
71966;BME280;59836;52.132;5.442;2023-08-24T13:04:11;101196.00;;;22.38;92.09
71966;BME280;59836;52.132;5.442;2023-08-24T13:06:37;101182.66;;;22.40;90.88
71966;BME280;59836;52.132;5.442;2023-08-24T13:09:04;101186.84;;;22.47;92.06
71966;BME280;59836;52.132;5.442;2023-08-24T13:11:32;101175.22;;;22.53;89.87
71966;BME280;59836;52.132;5.442;2023-08-24T13:14:12;101164.28;;;22.57;91.05
71966;BME280;59836;52.132;5.442;2023-08-24T13:16:45;101174.78;;;22.64;89.01
71966;BME280;59836;52.132;5.442;2023-08-24T13:19:12;101188.25;;;22.65;88.64
71966;BME280;59836;52.132;5.442;2023-08-24T13:21:39;101198.16;;;22.66;88.83
71966;BME280;59836;52.132;5.442;2023-08-24T13:24:05;101206.94;;;22.68;88.81
71966;BME280;59836;52.132;5.442;2023-08-24T13:26:38;101218.44;;;22.70;89.68
71966;BME280;59836;52.132;5.442;2023-08-24T13:29:11;101216.16;;;22.73;89.03
71966;BME280;59836;52.132;5.442;2023-08-24T13:31:37;101217.75;;;22.74;89.61
71966;BME280;59836;52.132;5.442;2023-08-24T13:34:04;101228.13;;;22.77;90.77
71966;BME280;59836;52.132;5.442;2023-08-24T13:36:33;101223.50;;;22.81;90.13
71966;BME280;59836;52.132;5.442;2023-08-24T13:39:00;101222.81;;;22.84;89.58
71966;BME280;59836;52.132;5.442;2023-08-24T13:41:26;101218.09;;;22.84;89.74
71966;BME280;59836;52.132;5.442;2023-08-24T13:43:53;101194.47;;;22.87;89.96
71966;BME280;59836;52.132;5.442;2023-08-24T13:46:28;101187.56;;;22.93;88.73
71966;BME280;59836;52.132;5.442;2023-08-24T13:48:54;101183.63;;;22.94;90.33
71966;BME280;59836;52.132;5.442;2023-08-24T13:51:21;101191.25;;;22.97;90.26